Slag Pile, Wisconsin
Current Conditions -  °F | °C
As of 3:55 AM on Wednesday 26 Nov 2014 (Local Time) from KRNH Reporting Station
Overcast Overcast  
Wind Chill: 14°   Ceiling: 7500
Heat Index: 23°   Visibility: 10mi
Dew Point: 17°   Wind: 7mph
Humidity: 77%   Direction: 90°E
Pressure: 30.06"   Gusts: NA
Location:  44.9511°N, 92.2794°W
Report Text: KRNH 260955Z AUTO 09006KT 10SM OVC075 M05/M09 A3006 RMK AO2 T10521086
Loading
Personal Weather Stations






























Interactive Weather Map New forecast layout! Learn more

10-Day Weather Forecast

Advertisements
Track Severe Weather on mobile